sensor_id;sensor_type;location;lat;lon;timestamp;temperature;humidity
32536;DHT22;18974;50.838;4.636;2022-09-09T00:02:24;15.10;99.90
32536;DHT22;18974;50.838;4.636;2022-09-09T00:05:05;15.10;99.90
32536;DHT22;18974;50.838;4.636;2022-09-09T00:07:54;15.10;99.90
32536;DHT22;18974;50.838;4.636;2022-09-09T00:10:36;15.20;99.90
32536;DHT22;18974;50.838;4.636;2022-09-09T00:21:11;15.30;99.90
32536;DHT22;18974;50.838;4.636;2022-09-09T00:23:40;15.30;99.90
32536;DHT22;18974;50.838;4.636;2022-09-09T00:26:35;15.40;99.90
32536;DHT22;18974;50.838;4.636;2022-09-09T00:29:14;15.40;99.90
32536;DHT22;18974;50.838;4.636;2022-09-09T00:31:44;15.30;99.90
32536;DHT22;18974;50.838;4.636;2022-09-09T00:34:21;15.30;99.90
32536;DHT22;18974;50.838;4.636;2022-09-09T00:36:51;15.20;99.90
32536;DHT22;18974;50.838;4.636;2022-09-09T00:39:44;15.20;99.90
32536;DHT22;18974;50.838;4.636;2022-09-09T00:42:16;15.20;99.90
32536;DHT22;18974;50.838;4.636;2022-09-09T00:44:58;15.00;99.90
32536;DHT22;18974;50.838;4.636;2022-09-09T00:47:50;15.10;99.90
32536;DHT22;18974;50.838;4.636;2022-09-09T00:50:38;15.10;99.90
32536;DHT22;18974;50.838;4.636;2022-09-09T00:56:14;15.30;99.90
32536;DHT22;18974;50.838;4.636;2022-09-09T00:58:43;15.30;99.90
32536;DHT22;18974;50.838;4.636;2022-09-09T01:01:12;15.30;99.90
32536;DHT22;18974;50.838;4.636;2022-09-09T01:03:52;15.40;99.90
32536;DHT22;18974;50.838;4.636;2022-09-09T01:12:09;15.40;99.90
32536;DHT22;18974;50.838;4.636;2022-09-09T01:17:34;15.40;99.90
32536;DHT22;18974;50.838;4.636;2022-09-09T01:20:15;15.50;99.90
32536;DHT22;18974;50.838;4.636;2022-09-09T01:26:19;15.50;99.90
32536;DHT22;18974;50.838;4.636;2022-09-09T01:28:49;15.50;99.90
32536;DHT22;18974;50.838;4.636;2022-09-09T01:31:40;15.50;99.90
32536;DHT22;18974;50.838;4.636;2022-09-09T01:34:12;15.50;99.90
32536;DHT22;18974;50.838;4.636;2022-09-09T01:36:45;15.60;99.90
32536;DHT22;18974;50.838;4.636;2022-09-09T01:39:16;15.50;99.90
32536;DHT22;18974;50.838;4.636;2022-09-09T01:41:42;15.40;99.90
32536;DHT22;18974;50.838;4.636;2022-09-09T01:44:08;15.40;99.90
32536;DHT22;18974;50.838;4.636;2022-09-09T01:46:35;15.40;99.90
32536;DHT22;18974;50.838;4.636;2022-09-09T01:49:02;15.50;99.90
32536;DHT22;18974;50.838;4.636;2022-09-09T01:51:29;15.50;99.90
32536;DHT22;18974;50.838;4.636;2022-09-09T01:53:55;15.50;99.90
32536;DHT22;18974;50.838;4.636;2022-09-09T01:57:06;15.40;99.90
32536;DHT22;18974;50.838;4.636;2022-09-09T02:02:26;15.30;99.90
32536;DHT22;18974;50.838;4.636;2022-09-09T02:10:19;15.40;99.90
32536;DHT22;18974;50.838;4.636;2022-09-09T02:12:53;15.40;99.90
32536;DHT22;18974;50.838;4.636;2022-09-09T02:15:30;15.40;99.90
32536;DHT22;18974;50.838;4.636;2022-09-09T02:17:58;15.40;99.90
32536;DHT22;18974;50.838;4.636;2022-09-09T02:20:28;15.40;99.90
32536;DHT22;18974;50.838;4.636;2022-09-09T02:22:58;15.30;99.90
32536;DHT22;18974;50.838;4.636;2022-09-09T02:25:26;15.30;99.90
32536;DHT22;18974;50.838;4.636;2022-09-09T02:27:53;15.40;99.90
32536;DHT22;18974;50.838;4.636;2022-09-09T02:30:20;15.40;99.90
32536;DHT22;18974;50.838;4.636;2022-09-09T02:32:48;15.40;99.90
32536;DHT22;18974;50.838;4.636;2022-09-09T02:35:20;15.40;99.90
32536;DHT22;18974;50.838;4.636;2022-09-09T02:37:46;15.40;99.90
32536;DHT22;18974;50.838;4.636;2022-09-09T02:40:13;15.40;99.90
32536;DHT22;18974;50.838;4.636;2022-09-09T02:42:45;15.30;99.90
32536;DHT22;18974;50.838;4.636;2022-09-09T02:45:14;15.30;99.90
32536;DHT22;18974;50.838;4.636;2022-09-09T02:47:50;15.30;99.90
32536;DHT22;18974;50.838;4.636;2022-09-09T02:50:19;15.40;99.90
32536;DHT22;18974;50.838;4.636;2022-09-09T02:53:06;15.30;99.90
32536;DHT22;18974;50.838;4.636;2022-09-09T02:55:59;15.30;99.90
32536;DHT22;18974;50.838;4.636;2022-09-09T02:58:26;15.40;99.90
32536;DHT22;18974;50.838;4.636;2022-09-09T03:00:53;15.40;99.90
32536;DHT22;18974;50.838;4.636;2022-09-09T03:03:19;15.40;99.90
32536;DHT22;18974;50.838;4.636;2022-09-09T03:05:46;15.40;99.90
32536;DHT22;18974;50.838;4.636;2022-09-09T03:08:12;15.40;99.90
32536;DHT22;18974;50.838;4.636;2022-09-09T03:10:38;15.40;99.90
32536;DHT22;18974;50.838;4.636;2022-09-09T03:13:05;15.40;99.90
32536;DHT22;18974;50.838;4.636;2022-09-09T03:15:34;15.50;99.90
32536;DHT22;18974;50.838;4.636;2022-09-09T03:18:00;15.50;99.90
32536;DHT22;18974;50.838;4.636;2022-09-09T03:20:28;15.50;99.90
32536;DHT22;18974;50.838;4.636;2022-09-09T03:22:54;15.40;99.90
32536;DHT22;18974;50.838;4.636;2022-09-09T03:25:21;15.40;99.90
32536;DHT22;18974;50.838;4.636;2022-09-09T03:27:49;15.40;99.90
32536;DHT22;18974;50.838;4.636;2022-09-09T03:30:15;15.50;99.90
32536;DHT22;18974;50.838;4.636;2022-09-09T03:32:41;15.40;99.90
32536;DHT22;18974;50.838;4.636;2022-09-09T03:35:07;15.40;99.90
32536;DHT22;18974;50.838;4.636;2022-09-09T03:37:33;15.50;99.90
32536;DHT22;18974;50.838;4.636;2022-09-09T03:39:59;15.50;99.90
32536;DHT22;18974;50.838;4.636;2022-09-09T03:42:25;15.50;99.90
32536;DHT22;18974;50.838;4.636;2022-09-09T03:44:51;15.50;99.90
32536;DHT22;18974;50.838;4.636;2022-09-09T03:47:18;15.60;99.90
32536;DHT22;18974;50.838;4.636;2022-09-09T03:49:44;15.70;99.90
32536;DHT22;18974;50.838;4.636;2022-09-09T03:52:10;15.60;99.90
32536;DHT22;18974;50.838;4.636;2022-09-09T03:54:36;15.50;99.90
32536;DHT22;18974;50.838;4.636;2022-09-09T03:57:02;15.50;99.90
32536;DHT22;18974;50.838;4.636;2022-09-09T03:59:28;15.40;99.90
32536;DHT22;18974;50.838;4.636;2022-09-09T04:01:54;15.40;99.90
32536;DHT22;18974;50.838;4.636;2022-09-09T04:04:20;15.40;99.90
32536;DHT22;18974;50.838;4.636;2022-09-09T04:06:46;15.40;99.90
32536;DHT22;18974;50.838;4.636;2022-09-09T04:09:14;15.40;99.90
32536;DHT22;18974;50.838;4.636;2022-09-09T04:11:40;15.40;99.90
32536;DHT22;18974;50.838;4.636;2022-09-09T04:14:05;15.40;99.90
32536;DHT22;18974;50.838;4.636;2022-09-09T04:16:32;15.30;99.90
32536;DHT22;18974;50.838;4.636;2022-09-09T04:18:59;15.40;99.90
32536;DHT22;18974;50.838;4.636;2022-09-09T04:21:26;15.40;99.90
32536;DHT22;18974;50.838;4.636;2022-09-09T04:23:51;15.40;99.90
32536;DHT22;18974;50.838;4.636;2022-09-09T04:26:18;15.40;99.90
32536;DHT22;18974;50.838;4.636;2022-09-09T04:28:44;15.40;99.90
32536;DHT22;18974;50.838;4.636;2022-09-09T04:31:15;15.50;99.90
32536;DHT22;18974;50.838;4.636;2022-09-09T04:33:41;15.60;99.90
32536;DHT22;18974;50.838;4.636;2022-09-09T04:36:07;15.60;99.90
32536;DHT22;18974;50.838;4.636;2022-09-09T04:38:33;15.60;99.90
32536;DHT22;18974;50.838;4.636;2022-09-09T04:40:59;15.70;99.90
32536;DHT22;18974;50.838;4.636;2022-09-09T04:43:25;15.70;99.90
32536;DHT22;18974;50.838;4.636;2022-09-09T04:45:53;15.60;99.90
32536;DHT22;18974;50.838;4.636;2022-09-09T04:48:20;15.60;99.90
32536;DHT22;18974;50.838;4.636;2022-09-09T04:51:06;15.50;99.90
32536;DHT22;18974;50.838;4.636;2022-09-09T04:53:33;15.50;99.90
32536;DHT22;18974;50.838;4.636;2022-09-09T04:56:09;15.40;99.90
32536;DHT22;18974;50.838;4.636;2022-09-09T04:58:39;15.40;99.90
32536;DHT22;18974;50.838;4.636;2022-09-09T05:01:18;15.40;99.90
32536;DHT22;18974;50.838;4.636;2022-09-09T05:03:44;15.30;99.90
32536;DHT22;18974;50.838;4.636;2022-09-09T05:06:13;15.40;99.90
32536;DHT22;18974;50.838;4.636;2022-09-09T05:08:40;15.40;99.90
32536;DHT22;18974;50.838;4.636;2022-09-09T05:11:24;15.30;99.90
32536;DHT22;18974;50.838;4.636;2022-09-09T05:13:51;15.40;99.90
32536;DHT22;18974;50.838;4.636;2022-09-09T05:16:17;15.40;99.90
32536;DHT22;18974;50.838;4.636;2022-09-09T05:18:44;15.40;99.90
32536;DHT22;18974;50.838;4.636;2022-09-09T05:21:14;15.40;99.90
32536;DHT22;18974;50.838;4.636;2022-09-09T05:23:40;15.50;99.90
32536;DHT22;18974;50.838;4.636;2022-09-09T05:26:08;15.60;99.90
32536;DHT22;18974;50.838;4.636;2022-09-09T05:28:35;15.60;99.90
32536;DHT22;18974;50.838;4.636;2022-09-09T05:31:04;15.70;99.90
32536;DHT22;18974;50.838;4.636;2022-09-09T05:33:31;15.80;99.90
32536;DHT22;18974;50.838;4.636;2022-09-09T05:35:58;15.80;99.90
32536;DHT22;18974;50.838;4.636;2022-09-09T05:38:24;15.80;99.90
32536;DHT22;18974;50.838;4.636;2022-09-09T05:40:51;15.80;99.90
32536;DHT22;18974;50.838;4.636;2022-09-09T05:43:18;15.90;99.90
32536;DHT22;18974;50.838;4.636;2022-09-09T05:45:46;15.80;99.90
32536;DHT22;18974;50.838;4.636;2022-09-09T05:48:15;16.00;99.90
32536;DHT22;18974;50.838;4.636;2022-09-09T05:50:42;16.00;99.90
32536;DHT22;18974;50.838;4.636;2022-09-09T05:53:08;16.10;99.90
32536;DHT22;18974;50.838;4.636;2022-09-09T05:55:35;16.20;99.90
32536;DHT22;18974;50.838;4.636;2022-09-09T05:58:01;16.20;99.90
32536;DHT22;18974;50.838;4.636;2022-09-09T06:00:27;16.40;99.90
32536;DHT22;18974;50.838;4.636;2022-09-09T06:02:53;16.40;99.90
32536;DHT22;18974;50.838;4.636;2022-09-09T06:05:19;16.40;99.90
32536;DHT22;18974;50.838;4.636;2022-09-09T06:07:45;16.40;99.90
32536;DHT22;18974;50.838;4.636;2022-09-09T06:10:13;16.50;99.90
32536;DHT22;18974;50.838;4.636;2022-09-09T06:12:39;16.60;99.90
32536;DHT22;18974;50.838;4.636;2022-09-09T06:15:06;16.60;99.90
32536;DHT22;18974;50.838;4.636;2022-09-09T06:17:32;16.50;99.90
32536;DHT22;18974;50.838;4.636;2022-09-09T06:19:58;16.50;99.90
32536;DHT22;18974;50.838;4.636;2022-09-09T06:22:24;16.50;99.90
32536;DHT22;18974;50.838;4.636;2022-09-09T06:24:50;16.60;99.90
32536;DHT22;18974;50.838;4.636;2022-09-09T06:27:16;16.60;99.90
32536;DHT22;18974;50.838;4.636;2022-09-09T06:29:42;16.60;99.90
32536;DHT22;18974;50.838;4.636;2022-09-09T06:32:07;16.70;99.90
32536;DHT22;18974;50.838;4.636;2022-09-09T06:34:34;16.80;99.90
32536;DHT22;18974;50.838;4.636;2022-09-09T06:37:01;17.00;99.90
32536;DHT22;18974;50.838;4.636;2022-09-09T06:39:26;17.00;99.90
32536;DHT22;18974;50.838;4.636;2022-09-09T06:41:52;16.90;99.90
32536;DHT22;18974;50.838;4.636;2022-09-09T06:44:18;16.90;99.90
32536;DHT22;18974;50.838;4.636;2022-09-09T06:46:44;17.00;99.90
32536;DHT22;18974;50.838;4.636;2022-09-09T06:49:13;17.20;99.90
32536;DHT22;18974;50.838;4.636;2022-09-09T06:51:39;17.40;99.90
32536;DHT22;18974;50.838;4.636;2022-09-09T06:54:08;17.40;99.90
32536;DHT22;18974;50.838;4.636;2022-09-09T06:56:37;17.40;99.90
32536;DHT22;18974;50.838;4.636;2022-09-09T06:59:07;17.30;99.90
32536;DHT22;18974;50.838;4.636;2022-09-09T07:01:36;17.20;99.90
32536;DHT22;18974;50.838;4.636;2022-09-09T07:04:03;17.20;99.90
32536;DHT22;18974;50.838;4.636;2022-09-09T07:06:34;17.10;99.90
32536;DHT22;18974;50.838;4.636;2022-09-09T07:09:03;17.00;99.90
32536;DHT22;18974;50.838;4.636;2022-09-09T07:11:31;17.10;99.90
32536;DHT22;18974;50.838;4.636;2022-09-09T07:13:58;17.20;99.90
32536;DHT22;18974;50.838;4.636;2022-09-09T07:16:25;17.20;99.90
32536;DHT22;18974;50.838;4.636;2022-09-09T07:18:54;17.30;99.90
32536;DHT22;18974;50.838;4.636;2022-09-09T07:21:27;17.30;99.90
32536;DHT22;18974;50.838;4.636;2022-09-09T07:23:53;17.30;99.90
32536;DHT22;18974;50.838;4.636;2022-09-09T07:26:22;17.40;99.90
32536;DHT22;18974;50.838;4.636;2022-09-09T07:28:48;17.40;99.90
32536;DHT22;18974;50.838;4.636;2022-09-09T07:31:20;17.50;99.90
32536;DHT22;18974;50.838;4.636;2022-09-09T07:33:47;17.50;99.90
32536;DHT22;18974;50.838;4.636;2022-09-09T07:36:19;17.50;99.90
32536;DHT22;18974;50.838;4.636;2022-09-09T07:38:51;17.40;99.90
32536;DHT22;18974;50.838;4.636;2022-09-09T07:41:39;17.40;99.90
32536;DHT22;18974;50.838;4.636;2022-09-09T07:44:07;17.40;99.90
32536;DHT22;18974;50.838;4.636;2022-09-09T07:46:34;17.30;99.90
32536;DHT22;18974;50.838;4.636;2022-09-09T07:48:59;17.40;99.90
32536;DHT22;18974;50.838;4.636;2022-09-09T07:51:28;17.30;99.90
32536;DHT22;18974;50.838;4.636;2022-09-09T07:53:59;17.20;99.90
32536;DHT22;18974;50.838;4.636;2022-09-09T07:56:26;17.20;99.90
32536;DHT22;18974;50.838;4.636;2022-09-09T07:58:53;17.30;99.90
32536;DHT22;18974;50.838;4.636;2022-09-09T08:01:27;17.30;99.90
32536;DHT22;18974;50.838;4.636;2022-09-09T08:04:00;17.40;99.90
32536;DHT22;18974;50.838;4.636;2022-09-09T08:06:30;17.50;99.90
32536;DHT22;18974;50.838;4.636;2022-09-09T08:08:56;17.70;99.90
32536;DHT22;18974;50.838;4.636;2022-09-09T08:11:26;17.80;99.90
32536;DHT22;18974;50.838;4.636;2022-09-09T08:13:53;17.90;99.90
32536;DHT22;18974;50.838;4.636;2022-09-09T08:16:21;18.00;99.90
32536;DHT22;18974;50.838;4.636;2022-09-09T08:18:49;18.20;99.90
32536;DHT22;18974;50.838;4.636;2022-09-09T08:21:20;18.30;99.90
32536;DHT22;18974;50.838;4.636;2022-09-09T08:23:47;18.40;99.90
32536;DHT22;18974;50.838;4.636;2022-09-09T08:26:17;18.40;99.90
32536;DHT22;18974;50.838;4.636;2022-09-09T08:28:48;18.70;99.90
32536;DHT22;18974;50.838;4.636;2022-09-09T08:31:21;18.70;99.90
32536;DHT22;18974;50.838;4.636;2022-09-09T08:33:47;18.60;99.90
32536;DHT22;18974;50.838;4.636;2022-09-09T08:36:15;18.70;99.90
32536;DHT22;18974;50.838;4.636;2022-09-09T08:38:48;18.80;99.90
32536;DHT22;18974;50.838;4.636;2022-09-09T08:58:19;18.00;99.90
32536;DHT22;18974;50.838;4.636;2022-09-09T09:12:01;17.40;99.90
32536;DHT22;18974;50.838;4.636;2022-09-09T09:14:30;17.50;99.90
32536;DHT22;18974;50.838;4.636;2022-09-09T09:16:57;17.50;99.90
32536;DHT22;18974;50.838;4.636;2022-09-09T09:19:25;17.40;99.90
32536;DHT22;18974;50.838;4.636;2022-09-09T09:24:42;17.30;99.90
32536;DHT22;18974;50.838;4.636;2022-09-09T09:30:26;17.40;99.90
32536;DHT22;18974;50.838;4.636;2022-09-09T09:35:36;17.60;99.90
32536;DHT22;18974;50.838;4.636;2022-09-09T09:38:24;17.50;99.90
32536;DHT22;18974;50.838;4.636;2022-09-09T09:40:52;17.40;99.90
32536;DHT22;18974;50.838;4.636;2022-09-09T09:43:30;17.20;99.90
32536;DHT22;18974;50.838;4.636;2022-09-09T09:45:57;17.20;99.90
32536;DHT22;18974;50.838;4.636;2022-09-09T09:48:24;17.30;99.90
32536;DHT22;18974;50.838;4.636;2022-09-09T09:51:02;17.30;99.90
32536;DHT22;18974;50.838;4.636;2022-09-09T09:53:34;17.30;99.90
32536;DHT22;18974;50.838;4.636;2022-09-09T09:56:09;17.40;99.90
32536;DHT22;18974;50.838;4.636;2022-09-09T10:03:58;17.30;99.90
32536;DHT22;18974;50.838;4.636;2022-09-09T10:06:35;17.30;99.90
32536;DHT22;18974;50.838;4.636;2022-09-09T10:09:03;17.40;99.90
32536;DHT22;18974;50.838;4.636;2022-09-09T10:14:07;17.40;99.90
32536;DHT22;18974;50.838;4.636;2022-09-09T10:19:29;17.20;99.90
32536;DHT22;18974;50.838;4.636;2022-09-09T10:30:18;17.30;99.90
32536;DHT22;18974;50.838;4.636;2022-09-09T10:51:47;17.30;99.90
32536;DHT22;18974;50.838;4.636;2022-09-09T10:57:28;17.60;99.90
32536;DHT22;18974;50.838;4.636;2022-09-09T10:59:59;17.80;99.90
32536;DHT22;18974;50.838;4.636;2022-09-09T11:02:31;17.90;99.90
32536;DHT22;18974;50.838;4.636;2022-09-09T11:05:04;18.10;99.90
32536;DHT22;18974;50.838;4.636;2022-09-09T11:13:24;18.60;99.90
32536;DHT22;18974;50.838;4.636;2022-09-09T11:16:00;18.70;99.90
32536;DHT22;18974;50.838;4.636;2022-09-09T11:18:31;18.90;99.90
32536;DHT22;18974;50.838;4.636;2022-09-09T11:21:03;19.00;99.90
32536;DHT22;18974;50.838;4.636;2022-09-09T11:23:41;19.20;99.90
32536;DHT22;18974;50.838;4.636;2022-09-09T11:26:18;19.30;99.90
32536;DHT22;18974;50.838;4.636;2022-09-09T11:32:03;19.30;99.90
32536;DHT22;18974;50.838;4.636;2022-09-09T11:35:02;19.50;99.90
32536;DHT22;18974;50.838;4.636;2022-09-09T11:38:15;19.70;99.90
32536;DHT22;18974;50.838;4.636;2022-09-09T11:40:41;19.80;99.90
32536;DHT22;18974;50.838;4.636;2022-09-09T11:43:14;19.70;99.90
32536;DHT22;18974;50.838;4.636;2022-09-09T11:45:41;19.60;99.90
32536;DHT22;18974;50.838;4.636;2022-09-09T11:48:44;19.70;99.90
32536;DHT22;18974;50.838;4.636;2022-09-09T11:51:26;19.90;99.90
32536;DHT22;18974;50.838;4.636;2022-09-09T11:53:56;20.10;99.90
32536;DHT22;18974;50.838;4.636;2022-09-09T11:59:30;20.30;99.90
32536;DHT22;18974;50.838;4.636;2022-09-09T12:02:24;20.40;99.90
32536;DHT22;18974;50.838;4.636;2022-09-09T12:04:57;20.60;99.90
32536;DHT22;18974;50.838;4.636;2022-09-09T12:07:30;20.70;99.90
32536;DHT22;18974;50.838;4.636;2022-09-09T12:12:36;20.60;99.90
32536;DHT22;18974;50.838;4.636;2022-09-09T12:17:30;20.40;99.90
32536;DHT22;18974;50.838;4.636;2022-09-09T12:28:15;20.70;99.90
32536;DHT22;18974;50.838;4.636;2022-09-09T12:33:46;21.20;99.90
32536;DHT22;18974;50.838;4.636;2022-09-09T12:36:18;21.20;99.90
32536;DHT22;18974;50.838;4.636;2022-09-09T12:38:45;21.10;99.90
